Time;durP1;ratioP1;P1;durP2;ratioP2;P2;SDS_P1;SDS_P2;PMS_P1;PMS_P2;Temp;Humidity;BMP_temperature;BMP_pressure;BME280_temperature;BME280_humidity;BME280_pressure;Samples;Min_cycle;Max_cycle;Signal;HPM_P1;HPM_P2
2023/12/08 00:00:13;;;;;;;20.20;13.15;;;1.60;99.90;;;;;;4877897;28;95188;-32
2023/12/08 00:02:38;;;;;;;19.63;11.65;;;1.60;99.90;;;;;;4877874;28;94425;-34
2023/12/08 00:05:05;;;;;;;24.13;12.77;;;1.50;99.90;;;;;;4878630;28;94325;-33
2023/12/08 00:07:30;;;;;;;21.13;12.82;;;1.40;99.90;;;;;;4878788;28;92086;-32
2023/12/08 00:09:56;;;;;;;19.40;11.32;;;1.50;99.90;;;;;;4878636;28;95435;-35
2023/12/08 00:12:21;;;;;;;19.30;13.20;;;1.40;99.90;;;;;;4877849;28;94504;-32
2023/12/08 00:14:47;;;;;;;18.27;12.02;;;1.40;99.90;;;;;;4878201;28;93823;-31
2023/12/08 00:17:13;;;;;;;16.35;10.35;;;1.50;99.90;;;;;;4878376;28;93167;-33
2023/12/08 00:19:40;;;;;;;15.57;11.50;;;1.60;99.90;;;;;;4878146;28;94446;-30
2023/12/08 00:22:06;;;;;;;21.50;11.17;;;1.60;99.90;;;;;;4878373;28;94626;-33
2023/12/08 00:24:31;;;;;;;19.00;10.75;;;1.60;99.90;;;;;;4877882;28;94005;-33
2023/12/08 00:26:57;;;;;;;16.55;10.45;;;1.60;99.90;;;;;;4878496;28;92204;-33
2023/12/08 00:29:23;;;;;;;18.15;10.07;;;1.60;99.90;;;;;;4878058;28;94018;-31
2023/12/08 00:31:49;;;;;;;21.08;10.40;;;1.60;99.90;;;;;;4878656;28;94503;-32
2023/12/08 00:34:14;;;;;;;17.63;11.55;;;1.50;99.90;;;;;;4877759;28;94280;-33
2023/12/08 00:36:41;;;;;;;23.00;12.50;;;1.50;99.90;;;;;;4877781;28;93231;-30
2023/12/08 00:39:07;;;;;;;24.73;13.50;;;1.50;99.90;;;;;;4876861;28;95201;-33
2023/12/08 00:41:33;;;;;;;22.25;11.52;;;1.50;99.90;;;;;;4878881;28;96267;-30
2023/12/08 00:43:58;;;;;;;22.63;11.00;;;1.50;99.90;;;;;;4877846;28;92128;-32
2023/12/08 00:46:24;;;;;;;24.95;13.55;;;1.40;99.90;;;;;;4878447;28;93021;-33
2023/12/08 00:48:50;;;;;;;16.92;9.07;;;1.40;99.90;;;;;;4877739;28;94144;-33
2023/12/08 00:51:15;;;;;;;16.27;11.18;;;1.40;99.90;;;;;;4881709;28;95033;-31
2023/12/08 00:53:41;;;;;;;18.88;13.13;;;1.40;99.90;;;;;;4879904;28;92614;-31
2023/12/08 00:56:08;;;;;;;27.77;13.05;;;1.50;99.90;;;;;;4881433;28;93693;-35
2023/12/08 00:58:33;;;;;;;22.33;12.32;;;1.50;99.90;;;;;;4881507;28;94250;-33
2023/12/08 01:00:59;;;;;;;22.83;12.73;;;1.40;99.90;;;;;;4880330;28;94182;-33
2023/12/08 01:03:24;;;;;;;29.05;12.80;;;1.40;99.90;;;;;;4880889;28;93616;-32
2023/12/08 01:05:50;;;;;;;19.38;11.23;;;1.40;99.90;;;;;;4880648;28;93384;-30
2023/12/08 01:08:15;;;;;;;22.48;12.63;;;1.30;99.90;;;;;;4879738;28;94657;-32
2023/12/08 01:10:41;;;;;;;21.98;12.63;;;1.30;99.90;;;;;;4881325;28;96256;-31
2023/12/08 01:13:07;;;;;;;21.05;13.27;;;1.30;99.90;;;;;;4880991;28;93356;-32
2023/12/08 01:15:33;;;;;;;25.20;14.70;;;1.30;99.90;;;;;;4881332;28;92660;-32
2023/12/08 01:17:59;;;;;;;17.73;12.52;;;1.30;99.90;;;;;;4880256;28;94327;-31
2023/12/08 01:20:24;;;;;;;18.73;12.10;;;1.40;99.90;;;;;;4881165;28;94983;-34
2023/12/08 01:22:51;;;;;;;22.33;13.27;;;1.50;99.90;;;;;;4880519;28;94460;-31
2023/12/08 01:25:16;;;;;;;23.02;11.30;;;1.50;99.90;;;;;;4880734;28;93908;-30
2023/12/08 01:27:42;;;;;;;19.13;13.65;;;1.50;99.90;;;;;;4879944;28;95839;-32
2023/12/08 01:30:08;;;;;;;22.70;12.25;;;1.40;99.90;;;;;;4880100;28;95402;-32
2023/12/08 01:32:34;;;;;;;17.58;12.05;;;1.40;99.90;;;;;;4880693;28;94216;-35
2023/12/08 01:34:59;;;;;;;17.38;10.35;;;1.40;99.90;;;;;;4880693;28;93936;-32
2023/12/08 01:37:25;;;;;;;17.25;11.88;;;1.30;99.90;;;;;;4880172;28;95120;-33
2023/12/08 01:39:50;;;;;;;24.45;14.32;;;1.40;99.90;;;;;;4881407;28;94602;-31
2023/12/08 01:42:16;;;;;;;21.10;14.80;;;1.40;99.90;;;;;;4879764;28;94313;-32
2023/12/08 01:44:42;;;;;;;17.92;11.88;;;1.30;99.90;;;;;;4881439;28;93460;-30
2023/12/08 01:47:07;;;;;;;18.45;12.23;;;1.40;99.90;;;;;;4874265;28;94217;-32
2023/12/08 01:49:34;;;;;;;16.98;12.25;;;1.30;99.90;;;;;;4880430;28;94158;-34
2023/12/08 01:52:00;;;;;;;18.23;13.15;;;1.30;99.90;;;;;;4880057;28;94550;-30
2023/12/08 01:54:26;;;;;;;21.42;11.93;;;1.30;99.90;;;;;;4879715;28;93251;-31
2023/12/08 01:56:52;;;;;;;23.73;11.13;;;1.40;99.90;;;;;;4880149;28;95669;-31
2023/12/08 01:59:19;;;;;;;22.83;14.43;;;1.40;99.90;;;;;;4880374;28;94798;-32
2023/12/08 02:01:44;;;;;;;17.77;10.30;;;1.40;99.90;;;;;;4879216;28;92675;-32
2023/12/08 02:04:10;;;;;;;25.08;12.55;;;1.50;99.90;;;;;;4880332;28;94771;-33
2023/12/08 02:06:36;;;;;;;17.83;9.50;;;1.50;99.90;;;;;;4879584;28;94424;-31
2023/12/08 02:09:02;;;;;;;16.08;9.95;;;1.50;99.90;;;;;;4881118;28;94458;-33
2023/12/08 02:11:28;;;;;;;25.17;12.45;;;1.40;99.90;;;;;;4881141;28;94606;-31
2023/12/08 02:13:54;;;;;;;19.25;11.93;;;1.40;99.90;;;;;;4879877;28;92196;-30
2023/12/08 02:16:25;;;;;;;21.60;11.35;;;1.30;99.90;;;;;;4879716;28;95597;-33
2023/12/08 02:18:52;;;;;;;17.25;11.10;;;1.30;99.90;;;;;;4879933;28;95618;-33
2023/12/08 02:21:18;;;;;;;21.38;13.70;;;1.30;99.90;;;;;;4880316;28;94451;-30
2023/12/08 02:23:50;;;;;;;20.13;12.18;;;1.40;99.90;;;;;;4879899;28;92148;-32
2023/12/08 02:26:17;;;;;;;23.65;11.70;;;1.40;99.90;;;;;;4879431;28;94682;-33
2023/12/08 02:28:43;;;;;;;24.85;13.88;;;1.40;99.90;;;;;;4879552;28;94477;-30
2023/12/08 02:31:13;;;;;;;18.42;11.23;;;1.30;99.90;;;;;;4879749;28;92726;-30
2023/12/08 02:33:41;;;;;;;21.75;11.57;;;1.30;99.90;;;;;;4880319;28;94096;-30
2023/12/08 02:36:09;;;;;;;21.15;11.52;;;1.30;99.90;;;;;;4880550;28;93730;-31
2023/12/08 02:38:35;;;;;;;22.50;13.77;;;1.30;99.90;;;;;;4880061;28;94173;-33
2023/12/08 02:41:01;;;;;;;17.02;11.60;;;1.30;99.90;;;;;;4878572;28;94015;-31
2023/12/08 02:43:27;;;;;;;23.73;11.40;;;1.30;99.90;;;;;;4880083;28;93147;-31
2023/12/08 02:45:53;;;;;;;21.25;13.82;;;1.30;99.90;;;;;;4879016;28;93487;-35
2023/12/08 02:48:18;;;;;;;20.02;12.00;;;1.30;99.90;;;;;;4879745;28;94699;-31
2023/12/08 02:50:44;;;;;;;20.00;10.93;;;1.20;99.90;;;;;;4879832;28;93559;-31
2023/12/08 02:53:10;;;;;;;18.02;10.48;;;1.20;99.90;;;;;;4878546;28;92434;-31
2023/12/08 02:55:35;;;;;;;23.08;11.50;;;1.30;99.90;;;;;;4879317;28;94347;-32
2023/12/08 02:58:01;;;;;;;20.08;11.68;;;1.20;99.90;;;;;;4879373;28;94885;-33
2023/12/08 03:00:26;;;;;;;24.90;11.93;;;1.30;99.90;;;;;;4879591;28;92338;-33
2023/12/08 03:02:52;;;;;;;21.55;12.35;;;1.30;99.90;;;;;;4879502;28;92922;-30
2023/12/08 03:05:18;;;;;;;17.45;13.70;;;1.40;99.90;;;;;;4878704;28;96737;-31
2023/12/08 03:07:44;;;;;;;21.48;11.88;;;1.30;99.90;;;;;;4879298;28;95562;-31
2023/12/08 03:10:09;;;;;;;19.25;11.07;;;1.40;99.90;;;;;;4878508;28;92149;-30
2023/12/08 03:12:35;;;;;;;15.23;10.00;;;1.30;99.90;;;;;;4879378;28;93737;-31
2023/12/08 03:15:01;;;;;;;23.10;10.02;;;1.30;99.90;;;;;;4878702;28;94959;-32
2023/12/08 03:17:26;;;;;;;19.40;11.45;;;1.30;99.90;;;;;;4879277;28;93343;-34
2023/12/08 03:19:52;;;;;;;19.70;11.32;;;1.30;99.90;;;;;;4878721;28;94805;-32
2023/12/08 03:22:18;;;;;;;23.98;12.77;;;1.30;99.90;;;;;;4878363;28;94122;-34
2023/12/08 03:24:43;;;;;;;24.17;12.77;;;1.30;99.90;;;;;;4879225;28;95087;-31
2023/12/08 03:27:09;;;;;;;19.30;11.15;;;1.40;99.90;;;;;;4879040;28;94767;-30
2023/12/08 03:29:41;;;;;;;16.58;11.02;;;1.30;99.90;;;;;;4878370;28;95445;-30
2023/12/08 03:32:07;;;;;;;17.65;10.93;;;1.40;99.90;;;;;;4878708;28;94602;-34
2023/12/08 03:34:33;;;;;;;17.33;10.45;;;1.30;99.90;;;;;;4878709;28;94619;-31
2023/12/08 03:36:59;;;;;;;19.42;11.95;;;1.40;99.90;;;;;;4878530;28;94757;-33
2023/12/08 03:39:24;;;;;;;19.00;11.77;;;1.40;99.90;;;;;;4879541;28;93072;-32
2023/12/08 03:41:50;;;;;;;16.98;9.65;;;1.40;99.90;;;;;;4878311;28;93048;-32
2023/12/08 03:44:15;;;;;;;16.33;9.57;;;1.40;99.90;;;;;;4878899;28;95032;-31
2023/12/08 03:46:44;;;;;;;23.85;11.38;;;1.40;99.90;;;;;;4879593;28;96248;-30
2023/12/08 03:49:10;;;;;;;23.55;11.23;;;1.40;99.90;;;;;;4866654;28;94498;-34
2023/12/08 03:51:36;;;;;;;19.13;11.57;;;1.30;99.90;;;;;;4878325;28;94088;-34
2023/12/08 03:54:01;;;;;;;20.38;12.10;;;1.30;99.90;;;;;;4878037;28;95294;-31
2023/12/08 03:56:27;;;;;;;20.80;11.55;;;1.20;99.90;;;;;;4878250;28;95764;-29
2023/12/08 03:58:52;;;;;;;19.75;10.98;;;1.20;99.90;;;;;;4878957;28;94465;-34
2023/12/08 04:01:19;;;;;;;20.63;13.18;;;1.20;99.90;;;;;;4878228;28;92749;-34
2023/12/08 04:03:44;;;;;;;17.70;11.27;;;1.20;99.90;;;;;;4893311;28;95020;-31
2023/12/08 04:06:10;;;;;;;20.92;11.40;;;1.20;99.90;;;;;;4878266;28;94834;-34
2023/12/08 04:08:36;;;;;;;22.52;12.13;;;1.10;99.90;;;;;;4866149;28;92294;-31
2023/12/08 04:11:01;;;;;;;17.80;10.98;;;1.10;99.90;;;;;;4878344;28;91435;-31
2023/12/08 04:13:27;;;;;;;22.00;13.23;;;1.20;99.90;;;;;;4865760;28;94597;-30
2023/12/08 04:15:52;;;;;;;17.50;12.65;;;1.10;99.90;;;;;;4878672;28;94561;-35
2023/12/08 04:18:18;;;;;;;23.20;12.10;;;1.00;99.90;;;;;;4878233;28;93678;-30
2023/12/08 04:20:44;;;;;;;20.90;11.85;;;1.10;99.90;;;;;;4878389;28;93195;-32
2023/12/08 04:23:09;;;;;;;19.42;11.63;;;1.10;99.90;;;;;;4876751;28;96125;-30
2023/12/08 04:25:35;;;;;;;20.17;11.32;;;1.10;99.90;;;;;;4880518;28;94393;-31
2023/12/08 04:28:01;;;;;;;17.77;11.52;;;1.20;99.90;;;;;;4882015;28;93476;-32
2023/12/08 04:30:27;;;;;;;16.45;10.25;;;1.20;99.90;;;;;;4881788;28;93436;-34
2023/12/08 04:32:52;;;;;;;23.13;12.57;;;1.10;99.90;;;;;;4880485;28;94489;-32
2023/12/08 04:35:18;;;;;;;22.55;11.93;;;1.10;99.90;;;;;;4881807;28;94680;-33
2023/12/08 04:37:44;;;;;;;21.35;12.15;;;1.10;99.90;;;;;;4882040;28;93486;-32
2023/12/08 04:40:10;;;;;;;17.48;12.43;;;1.00;99.90;;;;;;4881544;28;92662;-29
2023/12/08 04:42:36;;;;;;;18.23;10.50;;;1.20;99.90;;;;;;4880416;28;96440;-31
2023/12/08 04:45:03;;;;;;;18.35;11.27;;;1.20;99.90;;;;;;4881512;28;93725;-34
2023/12/08 04:47:28;;;;;;;39.88;13.13;;;1.20;99.90;;;;;;4881986;28;94583;-34
2023/12/08 04:49:54;;;;;;;26.67;13.90;;;1.10;99.90;;;;;;4881372;28;94084;-32
2023/12/08 04:52:20;;;;;;;18.77;11.27;;;1.10;99.90;;;;;;4881993;28;94510;-32
2023/12/08 04:54:46;;;;;;;22.55;14.48;;;1.10;99.90;;;;;;4881014;28;95875;-33
2023/12/08 04:57:11;;;;;;;20.10;12.18;;;1.10;99.90;;;;;;4881165;28;94340;-31
2023/12/08 04:59:38;;;;;;;15.32;10.55;;;1.20;99.90;;;;;;4881878;28;92480;-33
2023/12/08 05:02:04;;;;;;;15.20;8.40;;;1.20;99.90;;;;;;4881080;28;93491;-30
2023/12/08 05:04:30;;;;;;;19.40;11.10;;;1.30;99.90;;;;;;4882361;28;94248;-31
2023/12/08 05:06:55;;;;;;;21.63;14.20;;;1.20;99.90;;;;;;4880763;28;94143;-31
2023/12/08 05:09:21;;;;;;;19.50;13.23;;;1.20;99.90;;;;;;4881013;28;93271;-33
2023/12/08 05:11:47;;;;;;;29.38;13.57;;;1.20;99.90;;;;;;4881208;28;94496;-31
2023/12/08 05:14:13;;;;;;;16.23;11.38;;;1.10;99.90;;;;;;4879982;28;94628;-29
2023/12/08 05:16:39;;;;;;;20.15;10.70;;;1.20;99.90;;;;;;4881323;28;93966;-31
2023/12/08 05:19:04;;;;;;;14.50;10.02;;;1.10;99.90;;;;;;4880799;28;93359;-34
2023/12/08 05:21:30;;;;;;;22.23;12.40;;;1.10;99.90;;;;;;4881012;28;94764;-33
2023/12/08 05:23:56;;;;;;;18.98;10.90;;;1.10;99.90;;;;;;4881121;28;94531;-32
2023/12/08 05:26:23;;;;;;;18.55;10.93;;;1.10;99.90;;;;;;4880342;28;92282;-30
2023/12/08 05:28:49;;;;;;;17.17;11.38;;;1.10;99.90;;;;;;4881615;28;94500;-32
2023/12/08 05:31:14;;;;;;;20.00;12.77;;;1.10;99.90;;;;;;4879905;28;95733;-32
2023/12/08 05:33:40;;;;;;;20.05;11.07;;;1.00;99.90;;;;;;4879650;28;95333;-34
2023/12/08 05:36:06;;;;;;;20.15;11.18;;;1.00;99.90;;;;;;4879787;28;92572;-31
2023/12/08 05:38:32;;;;;;;24.65;10.60;;;1.10;99.90;;;;;;4880451;28;93580;-31
2023/12/08 05:40:57;;;;;;;19.48;11.95;;;1.10;99.90;;;;;;4881247;28;93192;-33
2023/12/08 05:43:23;;;;;;;22.30;12.70;;;1.00;99.90;;;;;;4880645;28;94699;-34
2023/12/08 05:45:49;;;;;;;22.40;12.32;;;1.00;99.90;;;;;;4875038;28;93537;-33
2023/12/08 05:48:15;;;;;;;24.23;12.85;;;1.00;99.90;;;;;;4880817;28;92192;-32
2023/12/08 05:50:40;;;;;;;20.90;11.45;;;1.00;99.90;;;;;;4880263;28;94226;-31
2023/12/08 05:53:06;;;;;;;17.70;11.90;;;0.90;99.90;;;;;;4880700;28;94461;-34
2023/12/08 05:55:32;;;;;;;18.00;11.93;;;0.90;99.90;;;;;;4879935;28;93787;-34
2023/12/08 05:57:58;;;;;;;23.17;12.80;;;0.90;99.90;;;;;;4880009;28;93596;-34
2023/12/08 06:00:23;;;;;;;23.65;12.48;;;0.90;99.90;;;;;;4880206;28;95275;-31
2023/12/08 06:02:49;;;;;;;21.27;12.95;;;0.90;99.90;;;;;;4879673;28;94857;-33
2023/12/08 06:05:15;;;;;;;17.67;11.10;;;0.90;99.90;;;;;;4880624;28;94708;-31
2023/12/08 06:07:40;;;;;;;21.85;12.25;;;0.90;99.90;;;;;;4880391;28;93400;-32
2023/12/08 06:10:11;;;;;;;20.48;13.18;;;0.90;99.90;;;;;;4879997;28;94766;-34
2023/12/08 06:12:38;;;;;;;19.05;11.88;;;0.90;99.90;;;;;;4879337;28;94309;-32
2023/12/08 06:15:06;;;;;;;24.13;11.65;;;0.90;99.90;;;;;;4880319;28;94361;-30
2023/12/08 06:17:32;;;;;;;20.55;12.57;;;0.90;99.90;;;;;;4880199;28;93228;-32
2023/12/08 06:19:57;;;;;;;21.23;12.23;;;0.90;99.90;;;;;;4878576;28;95114;-34
2023/12/08 06:22:23;;;;;;;23.63;10.65;;;0.90;99.90;;;;;;4879865;28;93923;-31
2023/12/08 06:24:49;;;;;;;21.30;12.45;;;0.90;99.90;;;;;;4878326;28;93603;-31
2023/12/08 06:27:15;;;;;;;23.83;13.15;;;0.90;99.90;;;;;;4879826;28;93643;-33
2023/12/08 06:29:41;;;;;;;24.15;12.35;;;0.90;99.90;;;;;;4879955;28;94589;-32
2023/12/08 06:32:06;;;;;;;17.52;11.93;;;0.90;99.90;;;;;;4879650;28;94592;-34
2023/12/08 06:34:32;;;;;;;18.80;11.63;;;0.80;99.90;;;;;;4879582;28;92789;-31
2023/12/08 06:36:58;;;;;;;17.33;10.88;;;0.80;99.90;;;;;;4879646;28;93507;-29
2023/12/08 06:39:24;;;;;;;23.00;14.13;;;0.80;99.90;;;;;;4880232;28;94449;-32
2023/12/08 06:41:49;;;;;;;23.20;13.25;;;0.90;99.90;;;;;;4879661;28;96316;-31
2023/12/08 06:44:15;;;;;;;16.88;10.48;;;0.80;99.90;;;;;;4878146;28;95400;-31
2023/12/08 06:46:43;;;;;;;18.20;12.93;;;0.90;99.90;;;;;;4879678;28;93357;-32
2023/12/08 06:49:08;;;;;;;18.13;12.77;;;0.90;99.90;;;;;;4879163;28;94553;-32
2023/12/08 06:51:37;;;;;;;23.00;11.65;;;0.90;99.90;;;;;;4879556;28;94786;-34
2023/12/08 06:54:04;;;;;;;23.50;12.77;;;0.90;99.90;;;;;;4879695;28;93448;-33
2023/12/08 06:56:30;;;;;;;24.73;15.07;;;0.90;99.90;;;;;;4879619;28;92186;-32
2023/12/08 06:58:56;;;;;;;19.95;10.52;;;0.90;99.90;;;;;;4878276;28;94281;-29
2023/12/08 07:01:22;;;;;;;18.27;12.13;;;0.90;99.90;;;;;;4879930;28;93864;-34
2023/12/08 07:03:48;;;;;;;18.48;12.00;;;0.90;99.90;;;;;;4879392;28;93143;-31
2023/12/08 07:06:14;;;;;;;25.25;16.65;;;0.80;99.90;;;;;;4879370;28;93087;-30
2023/12/08 07:08:40;;;;;;;19.92;12.20;;;0.90;99.90;;;;;;4878828;28;95443;-31
2023/12/08 07:11:05;;;;;;;22.02;10.90;;;0.90;99.90;;;;;;4878666;28;96492;-31
2023/12/08 07:13:31;;;;;;;26.17;14.02;;;0.90;99.90;;;;;;4879255;28;94968;-30
2023/12/08 07:15:57;;;;;;;20.65;12.48;;;0.90;99.90;;;;;;4878372;28;92727;-33
2023/12/08 07:18:22;;;;;;;21.25;13.10;;;0.90;99.90;;;;;;4872939;28;94643;-33
2023/12/08 07:20:48;;;;;;;25.33;13.60;;;0.90;99.90;;;;;;4875482;28;94944;-32
2023/12/08 07:23:14;;;;;;;21.35;12.38;;;0.90;99.90;;;;;;4877924;28;93362;-34
2023/12/08 07:25:39;;;;;;;22.13;12.77;;;0.90;99.90;;;;;;4879658;28;93787;-32
2023/12/08 07:28:05;;;;;;;16.75;11.30;;;0.90;99.90;;;;;;4878001;28;94939;-30
2023/12/08 07:30:30;;;;;;;23.67;12.70;;;0.90;99.90;;;;;;4879310;28;95065;-33
2023/12/08 07:32:56;;;;;;;20.60;11.77;;;0.90;99.90;;;;;;4905861;23;95365;-34
2023/12/08 07:35:22;;;;;;;18.58;11.75;;;0.90;99.90;;;;;;4859733;28;93119;-34
2023/12/08 07:37:49;;;;;;;21.67;10.82;;;1.00;99.90;;;;;;4858363;28;96507;-30
2023/12/08 07:40:15;;;;;;;22.98;12.60;;;0.90;99.90;;;;;;4859699;28;94624;-30
2023/12/08 07:42:41;;;;;;;24.20;12.70;;;1.00;99.90;;;;;;4860274;28;93621;-31
2023/12/08 07:45:08;;;;;;;25.13;13.18;;;1.00;99.90;;;;;;4859718;28;92587;-31
2023/12/08 07:47:33;;;;;;;24.88;12.38;;;1.00;99.90;;;;;;4849227;28;94845;-31
2023/12/08 07:49:59;;;;;;;22.15;14.18;;;1.00;99.90;;;;;;4857481;28;94509;-31
2023/12/08 07:52:25;;;;;;;17.20;10.88;;;1.00;99.90;;;;;;4857960;28;94910;-32
2023/12/08 07:54:51;;;;;;;21.83;12.15;;;1.00;99.90;;;;;;4858053;28;93920;-32
2023/12/08 07:57:16;;;;;;;24.65;12.88;;;1.00;99.90;;;;;;4856207;28;96530;-30
2023/12/08 07:59:44;;;;;;;21.63;12.48;;;1.00;99.90;;;;;;4856239;28;95642;-32
2023/12/08 08:02:10;;;;;;;19.15;10.85;;;1.00;99.90;;;;;;4857490;28;93349;-33
2023/12/08 08:04:35;;;;;;;19.92;12.32;;;1.00;99.90;;;;;;4856523;28;94144;-31
2023/12/08 08:07:01;;;;;;;22.83;12.32;;;1.00;99.90;;;;;;4857083;28;95145;-35
2023/12/08 08:09:26;;;;;;;20.02;12.43;;;1.10;99.90;;;;;;4856988;28;92753;-33
2023/12/08 08:11:52;;;;;;;24.95;13.30;;;1.10;99.90;;;;;;4857324;28;94634;-30
2023/12/08 08:14:20;;;;;;;27.75;12.93;;;1.00;99.90;;;;;;4857826;28;92569;-33
2023/12/08 08:16:47;;;;;;;22.08;17.05;;;1.10;99.90;;;;;;4857336;28;94163;-32
2023/12/08 08:19:13;;;;;;;21.60;11.93;;;1.10;99.90;;;;;;4856583;28;95009;-31
2023/12/08 08:21:38;;;;;;;19.50;12.60;;;1.10;99.90;;;;;;4856953;28;93631;-34
2023/12/08 08:24:04;;;;;;;22.10;12.95;;;1.10;99.90;;;;;;4851959;28;94771;-29
2023/12/08 08:26:30;;;;;;;21.10;13.07;;;1.10;99.90;;;;;;4858832;28;94795;-34
2023/12/08 08:28:55;;;;;;;25.00;14.88;;;1.10;99.90;;;;;;4859376;28;94454;-34
2023/12/08 08:31:21;;;;;;;24.80;14.43;;;1.10;99.90;;;;;;4859743;28;94456;-30
2023/12/08 08:33:48;;;;;;;21.70;12.40;;;1.00;99.90;;;;;;4858283;28;94383;-33
2023/12/08 08:36:14;;;;;;;25.55;12.05;;;1.00;99.90;;;;;;4857903;28;94574;-33
2023/12/08 08:38:40;;;;;;;26.13;13.73;;;1.10;99.90;;;;;;4858513;28;94392;-30
2023/12/08 08:41:05;;;;;;;21.00;12.10;;;1.20;99.90;;;;;;4859256;28;93523;-33
2023/12/08 08:43:31;;;;;;;22.80;12.85;;;1.20;99.90;;;;;;4858937;28;94480;-31
2023/12/08 08:45:57;;;;;;;21.05;12.05;;;1.20;99.90;;;;;;4858723;28;96809;-32
2023/12/08 08:48:22;;;;;;;19.92;12.48;;;1.10;99.90;;;;;;4859038;28;94445;-31
2023/12/08 08:50:48;;;;;;;19.27;12.63;;;1.10;99.90;;;;;;4859476;28;93282;-30
2023/12/08 08:53:16;;;;;;;21.65;11.63;;;1.10;99.90;;;;;;4859030;28;95130;-33
2023/12/08 08:55:42;;;;;;;23.50;14.40;;;1.10;99.90;;;;;;4846901;28;94288;-33
2023/12/08 08:58:07;;;;;;;16.98;11.77;;;1.10;99.90;;;;;;4858255;28;94820;-32
2023/12/08 09:00:34;;;;;;;21.75;14.07;;;1.10;99.90;;;;;;4847795;28;93083;-31
2023/12/08 09:03:01;;;;;;;23.33;14.02;;;1.20;99.90;;;;;;4858643;28;92913;-31
2023/12/08 09:05:27;;;;;;;19.70;12.30;;;1.20;99.90;;;;;;4859449;28;93975;-33
2023/12/08 09:07:53;;;;;;;23.02;13.00;;;1.20;99.90;;;;;;4858189;28;94022;-32
2023/12/08 09:10:19;;;;;;;29.10;12.27;;;1.10;99.90;;;;;;4857663;28;95404;-34
2023/12/08 09:12:45;;;;;;;22.75;13.27;;;1.10;99.90;;;;;;4861418;28;94539;-30
2023/12/08 09:15:13;;;;;;;17.25;12.07;;;1.10;99.90;;;;;;4861670;28;94768;-32
2023/12/08 09:17:39;;;;;;;19.85;11.95;;;1.20;99.90;;;;;;4861887;28;94185;-32
2023/12/08 09:20:07;;;;;;;18.23;12.43;;;1.20;99.90;;;;;;4861619;28;93612;-32
2023/12/08 09:22:34;;;;;;;23.73;14.65;;;1.20;99.90;;;;;;4861563;28;94224;-31
2023/12/08 09:25:01;;;;;;;22.38;11.57;;;1.20;99.90;;;;;;4861382;28;94808;-34
2023/12/08 09:27:26;;;;;;;23.80;13.93;;;1.20;99.90;;;;;;4861231;28;94507;-32
2023/12/08 09:29:52;;;;;;;24.08;14.10;;;1.20;99.90;;;;;;4862629;28;94686;-29
2023/12/08 09:32:18;;;;;;;21.05;11.75;;;1.20;99.90;;;;;;4860899;28;93151;-33
2023/12/08 09:34:44;;;;;;;23.38;12.50;;;1.20;99.90;;;;;;4861328;28;95550;-32
2023/12/08 09:37:09;;;;;;;21.25;12.75;;;1.20;99.90;;;;;;4861577;28;93375;-31
2023/12/08 09:39:35;;;;;;;23.00;13.90;;;1.20;99.90;;;;;;4860217;28;93283;-31
2023/12/08 09:42:06;;;;;;;18.90;12.07;;;1.20;99.90;;;;;;4862262;28;94304;-30
2023/12/08 09:44:33;;;;;;;21.88;13.38;;;1.20;99.90;;;;;;4862124;28;94632;-34
2023/12/08 09:47:02;;;;;;;21.27;13.73;;;1.20;99.90;;;;;;4861109;28;94081;-30
2023/12/08 09:49:44;;;;;;;18.52;10.65;;;1.20;99.90;;;;;;4862248;28;93784;-32
2023/12/08 09:52:13;;;;;;;22.15;15.57;;;1.20;99.90;;;;;;4862161;28;93913;-33
2023/12/08 09:54:39;;;;;;;22.60;13.05;;;1.20;99.90;;;;;;4862030;28;94948;-30
2023/12/08 09:57:08;;;;;;;22.17;14.45;;;1.30;99.90;;;;;;4860727;28;94011;-32
2023/12/08 09:59:37;;;;;;;22.83;13.63;;;1.30;99.90;;;;;;4860967;28;95503;-34
2023/12/08 10:02:03;;;;;;;18.58;12.35;;;1.30;99.90;;;;;;4860776;28;93834;-31
2023/12/08 10:04:29;;;;;;;25.00;14.30;;;1.30;99.90;;;;;;4861443;28;94124;-31
2023/12/08 10:06:56;;;;;;;20.00;13.70;;;1.30;99.90;;;;;;4860245;28;94700;-32
2023/12/08 10:09:22;;;;;;;22.35;11.48;;;1.30;99.90;;;;;;4860564;28;92101;-32
2023/12/08 10:11:48;;;;;;;20.95;12.48;;;1.30;99.90;;;;;;4861230;28;94734;-31
2023/12/08 10:14:15;;;;;;;23.05;13.82;;;1.30;99.90;;;;;;4860195;28;95027;-33
2023/12/08 10:16:44;;;;;;;21.33;11.10;;;1.30;99.90;;;;;;4861625;28;94344;-33
2023/12/08 10:19:09;;;;;;;21.88;12.02;;;1.30;99.90;;;;;;4860387;28;94027;-32
2023/12/08 10:21:35;;;;;;;17.23;11.85;;;1.30;99.90;;;;;;4861235;28;92525;-32
2023/12/08 10:24:05;;;;;;;23.38;13.38;;;1.30;99.90;;;;;;4859421;28;95621;-32
2023/12/08 10:26:32;;;;;;;27.90;13.65;;;1.30;99.90;;;;;;4849240;28;95249;-32
2023/12/08 10:28:58;;;;;;;26.48;15.80;;;1.30;99.90;;;;;;4861049;28;92144;-31
2023/12/08 10:31:25;;;;;;;23.63;14.15;;;1.30;99.90;;;;;;4861253;28;93344;-31
2023/12/08 10:33:52;;;;;;;26.35;15.65;;;1.30;99.90;;;;;;4859432;28;94826;-34
2023/12/08 10:36:20;;;;;;;20.40;13.20;;;1.30;99.90;;;;;;4860857;28;95399;-33
2023/12/08 10:38:47;;;;;;;26.25;13.93;;;1.40;99.90;;;;;;4861224;28;94095;-32
2023/12/08 10:41:13;;;;;;;21.73;13.30;;;1.40;99.90;;;;;;4861708;28;93439;-33
2023/12/08 10:43:39;;;;;;;25.52;14.05;;;1.40;99.90;;;;;;4860190;28;94720;-34
2023/12/08 10:46:06;;;;;;;29.42;16.80;;;1.40;99.90;;;;;;4860492;28;94584;-30
2023/12/08 10:48:33;;;;;;;20.15;13.02;;;1.40;99.90;;;;;;4860518;28;94162;-31
2023/12/08 10:50:59;;;;;;;22.05;14.27;;;1.40;99.90;;;;;;4860496;28;92781;-32
2023/12/08 10:53:25;;;;;;;24.10;13.45;;;1.40;99.90;;;;;;4860719;28;94173;-30
2023/12/08 10:56:10;;;;;;;25.90;16.85;;;1.50;99.90;;;;;;4859923;28;95836;-32
2023/12/08 10:58:39;;;;;;;29.58;13.95;;;1.40;99.90;;;;;;4860568;28;92764;-31
2023/12/08 11:01:14;;;;;;;19.63;13.73;;;1.50;99.90;;;;;;4860448;28;94100;-30
2023/12/08 11:03:42;;;;;;;22.10;13.82;;;1.40;99.90;;;;;;4860158;28;96348;-30
2023/12/08 11:06:21;;;;;;;31.20;15.17;;;1.50;99.90;;;;;;4858942;28;94660;-30
2023/12/08 11:08:54;;;;;;;21.10;12.73;;;1.50;99.90;;;;;;4858679;28;93143;-32
2023/12/08 11:11:22;;;;;;;24.13;14.45;;;1.50;99.90;;;;;;4860285;28;94677;-31
2023/12/08 11:13:53;;;;;;;24.85;14.05;;;1.50;99.90;;;;;;4860204;28;95673;-32
2023/12/08 11:16:37;;;;;;;20.58;13.77;;;1.50;99.90;;;;;;4860597;28;94470;-30
2023/12/08 11:19:05;;;;;;;20.52;12.25;;;1.60;99.90;;;;;;4860309;28;92783;-31
2023/12/08 11:21:31;;;;;;;28.27;16.07;;;1.50;99.90;;;;;;4860274;28;93321;-32
2023/12/08 11:23:57;;;;;;;32.70;15.52;;;1.60;99.90;;;;;;4859971;28;94758;-34
2023/12/08 11:26:40;;;;;;;23.00;14.48;;;1.60;99.90;;;;;;4857972;28;96831;-34
2023/12/08 11:29:26;;;;;;;29.63;16.27;;;1.60;99.90;;;;;;4860418;28;94229;-34
2023/12/08 11:32:00;;;;;;;27.30;15.20;;;1.60;99.90;;;;;;4860784;28;93209;-32
2023/12/08 11:34:36;;;;;;;25.35;14.52;;;1.60;99.90;;;;;;4858321;28;93381;-34
2023/12/08 11:37:02;;;;;;;32.88;16.25;;;1.60;99.90;;;;;;4859610;28;93247;-35
2023/12/08 11:39:34;;;;;;;32.40;16.40;;;1.60;99.90;;;;;;4859527;28;94160;-32
2023/12/08 11:42:07;;;;;;;28.20;14.65;;;1.60;99.90;;;;;;4859907;28;93699;-32
2023/12/08 11:44:35;;;;;;;33.10;18.73;;;1.60;99.90;;;;;;4860317;28;94317;-34
2023/12/08 11:47:00;;;;;;;29.67;14.50;;;1.60;99.90;;;;;;4859385;28;94941;-34
2023/12/08 11:49:26;;;;;;;29.58;16.92;;;1.60;99.90;;;;;;4859545;28;93495;-32
2023/12/08 11:52:09;;;;;;;32.28;18.48;;;1.60;99.90;;;;;;4854981;28;94390;-32
2023/12/08 11:55:00;;;;;;;35.10;15.60;;;1.60;99.90;;;;;;4856848;28;93875;-33
2023/12/08 11:57:27;;;;;;;25.48;14.80;;;1.70;99.90;;;;;;4858209;28;94224;-32
2023/12/08 11:59:56;;;;;;;28.40;16.02;;;1.70;99.90;;;;;;4857334;28;93816;-31
2023/12/08 12:02:25;;;;;;;46.67;16.08;;;1.70;99.90;;;;;;4857365;28;92220;-34
2023/12/08 12:04:51;;;;;;;;;;;1.70;99.90;;;;;;4858052;28;95662;-31
2023/12/08 12:07:19;;;;;;;23.65;13.07;;;1.70;99.90;;;;;;4862292;28;95067;-31
2023/12/08 12:09:49;;;;;;;39.67;21.25;;;1.70;99.90;;;;;;4860126;28;93724;-30
2023/12/08 12:12:23;;;;;;;41.53;18.27;;;1.70;99.90;;;;;;4857415;28;92508;-31
2023/12/08 12:14:54;;;;;;;30.02;14.52;;;1.70;99.90;;;;;;4859224;28;96299;-31
2023/12/08 12:17:20;;;;;;;33.78;15.07;;;1.70;99.90;;;;;;4859328;28;94618;-33
2023/12/08 12:19:47;;;;;;;28.30;16.42;;;1.70;99.90;;;;;;4860447;28;92772;-31
2023/12/08 12:22:14;;;;;;;23.60;14.40;;;1.70;99.90;;;;;;4859084;28;94133;-29
2023/12/08 12:24:40;;;;;;;30.35;17.30;;;1.70;99.90;;;;;;4859095;28;95115;-32
2023/12/08 12:27:06;;;;;;;27.88;16.45;;;1.70;99.90;;;;;;4857313;28;94830;-33
2023/12/08 12:29:33;;;;;;;36.90;15.98;;;1.80;99.90;;;;;;4858121;28;95344;-32
2023/12/08 12:31:59;;;;;;;35.05;16.45;;;1.70;99.90;;;;;;4859196;28;93256;-32
2023/12/08 12:34:24;;;;;;;28.15;15.27;;;1.70;99.90;;;;;;4859501;28;95348;-30